KHWD/HWD METAR and TAF weather

Enter ICAO airport designator
Station Type Date Time Source
KHWD METAR 2019/10/15 19:11 UTC NOAA

KHWD 151911Z 27007KT 7SM SCT012 14/10 A3012 RMK AO2 T01440100


Station Type Date Time Source
KHWD Decoded METAR 2019/10/15 19:11 UTC NOAA

HAYWARD AIR TERMINAL, CA, United States (KHWD) 37-40N 122-07W 21M
Oct 15, 2019 - 03:11 PM EDT / 2019.10.15 1911 UTC
Wind: from the W (270 degrees) at 8 MPH (7 KT):0
Visibility: 7 mile(s):0
Sky conditions: partly cloudy
Temperature: 57.9 F (14.4 C)
Dew Point: 50.0 F (10.0 C)
Relative Humidity: 74%
Pressure (altimeter): 30.12 in. Hg (1019 hPa)
ob: KHWD 151911Z 27007KT 7SM SCT012 14/10 A3012 RMK AO2 T01440100
cycle: 19

Station Type Date Time Source
KHWD TAF UTC NOAA

Error!

Example: see airport list